This is the latest recevied weather packets stored in our database for station/object W1BKW. If no packets are shown the sender has not sent any weather packets the latest 10 day(s).
| Time | Temp. | Humidity | Pressure | Rain* | Wind** | Luminosity | Snow |
|---|---|---|---|---|---|---|---|
| 1778050326 | 15° C | 93% | 1006.7 hPa | 0 mm | - | 0 W/m² | - |
| 1778049423 | 14.44° C | 96% | 1006.5 hPa | 0 mm | - | 0 W/m² | - |
| 1778048520 | 15° C | 93% | 1006.2 hPa | 0 mm | - | 0 W/m² | - |
| 1778047618 | 15° C | 94% | 1006.1 hPa | 0 mm | - | 0 W/m² | - |
| 1778046715 | 15° C | 93% | 1005.8 hPa | 0 mm | - | 0 W/m² | - |
| 1778045811 | 15° C | 92% | 1005.8 hPa | 0 mm | - | 0 W/m² | - |
| 1778044911 | 15.56° C | 91% | 1006 hPa | 0 mm | - | 0 W/m² | - |
| 1778044009 | 15.56° C | 93% | 1005.8 hPa | 0 mm | - | 0 W/m² | - |
| 1778043105 | 15.56° C | 90% | 1005.8 hPa | 0 mm | - | 0 W/m² | - |
| 1778042203 | 15.56° C | 91% | 1005.8 hPa | 0 mm | - | 0 W/m² | - |
| 1778041303 | 15° C | 94% | 1005.9 hPa | 0 mm | - | 0 W/m² | - |
| 1778040406 | 13.33° C | 99% | 1006.1 hPa | 0 mm | - | 0 W/m² | - |
| 1778039497 | 12.22° C | 99% | 1006.1 hPa | 0 mm | - | 0 W/m² | - |
| 1778038595 | 12.78° C | 99% | 1005.6 hPa | 0 mm | - | 0 W/m² | - |
| 1778037691 | 13.33° C | 99% | 1005.6 hPa | 0 mm | - | 0 W/m² | - |
| 1778036790 | 13.33° C | 99% | 1005.8 hPa | 0 mm | - | 0 W/m² | - |
| 1778035885 | 13.89° C | 99% | 1005.8 hPa | 0 mm | - | 0 W/m² | - |
| 1778034981 | 14.44° C | 99% | 1006 hPa | 0 mm | - | 0 W/m² | - |
| 1778034078 | 14.44° C | 99% | 1006.2 hPa | 0 mm | - | 0 W/m² | - |
| 1778033176 | 14.44° C | 99% | 1006 hPa | 0 mm | - | 0 W/m² | - |
| 1778032274 | 13.89° C | 99% | 1006.1 hPa | 0 mm | - | 0 W/m² | - |
| 1778031371 | 13.89° C | 99% | 1006 hPa | 0 mm | - | 0 W/m² | - |
| 1778030466 | 14.44° C | 99% | 1005.7 hPa | 0 mm | - | 0 W/m² | - |
| 1778029565 | 14.44° C | 99% | 1005.5 hPa | 0 mm | - | 0 W/m² | - |
| 1778028661 | 14.44° C | 99% | 1005.6 hPa | 0 mm | - | 0 W/m² | - |
* Rain latest hour (hover to see other rain measurements)
** Current wind speed in m/s (hover to see current wind gust speed)